Terminal Aerodrome Forecast
Issued by NWS Indianapolis, IN

Home | Current Version | Previous Version | Text Only | Print | Product List | Glossary On
Versions: 1 2 3 4 5 6 7 8 9 10 11 12 13 14 15 16 17 18 19 20 21 22 23 24 25 26
000
FTUS43 KIND 261122
TAFIND
TAF
KIND 261122Z 2612/2718 21005KT P6SM FEW250
     FM261600 19008KT P6SM SCT200
     FM261900 21011G19KT P6SM BKN200
     FM262300 21008KT P6SM BKN110
     FM271000 18004KT P6SM OVC050
     FM271400 17006KT P6SM BKN025=

USA.gov is the U.S. government's official web portal to all federal, state and local government web resources and services.